Time;durP1;ratioP1;P1;durP2;ratioP2;P2;SDS_P1;SDS_P2;PMS_P1;PMS_P2;Temp;Humidity;BMP_temperature;BMP_pressure;BME280_temperature;BME280_humidity;BME280_pressure;Samples;Min_cycle;Max_cycle;Signal;HPM_P1;HPM_P2
2023/03/17 00:00:20;;;;;;;3.60;1.90;;;9.90;1.00;;;;;;5098951;28;20228;-60
2023/03/17 00:02:48;;;;;;;3.93;1.83;;;9.90;1.00;;;;;;5099723;28;20226;-63
2023/03/17 00:05:16;;;;;;;2.77;2.07;;;9.90;1.00;;;;;;5093961;28;20216;-59
2023/03/17 00:07:45;;;;;;;3.30;1.90;;;9.90;1.00;;;;;;5097905;28;20217;-60
2023/03/17 00:10:21;;;;;;;2.47;2.00;;;9.80;1.00;;;;;;5096736;28;20279;-60
2023/03/17 00:12:52;;;;;;;2.73;1.90;;;9.90;1.00;;;;;;5097461;28;20284;-60
2023/03/17 00:15:25;;;;;;;3.03;2.10;;;9.80;1.00;;;;;;5079547;28;20289;-60
2023/03/17 00:17:54;;;;;;;2.43;1.67;;;9.70;1.00;;;;;;5098689;28;20274;-60
2023/03/17 00:20:28;;;;;;;4.67;2.40;;;9.70;1.00;;;;;;5099186;28;20204;-59
2023/03/17 00:22:58;;;;;;;3.47;2.17;;;9.60;1.00;;;;;;5093950;28;20200;-60
2023/03/17 00:25:31;;;;;;;2.43;2.10;;;9.60;1.00;;;;;;5090271;28;20249;-60
2023/03/17 00:27:59;;;;;;;4.07;2.50;;;9.70;1.00;;;;;;5090111;28;20232;-59
2023/03/17 00:30:27;;;;;;;2.53;2.17;;;9.70;1.00;;;;;;5075278;28;20193;-60
2023/03/17 00:32:57;;;;;;;4.30;2.57;;;9.60;1.00;;;;;;5092102;28;20674;-60
2023/03/17 00:35:28;;;;;;;3.23;1.93;;;9.50;1.00;;;;;;5091826;28;20609;-59
2023/03/17 00:37:56;;;;;;;3.50;2.03;;;9.50;1.00;;;;;;5091537;28;20205;-60
2023/03/17 00:40:28;;;;;;;2.63;1.83;;;9.50;1.00;;;;;;5073124;28;20301;-60
2023/03/17 00:42:56;;;;;;;2.27;1.80;;;9.50;1.00;;;;;;5088665;28;20656;-59
2023/03/17 00:45:25;;;;;;;2.83;2.10;;;9.50;1.00;;;;;;5085163;28;20299;-59
2023/03/17 00:47:56;;;;;;;2.93;2.10;;;9.50;1.00;;;;;;5091386;28;20218;-60
2023/03/17 00:50:26;;;;;;;2.30;1.63;;;9.50;1.00;;;;;;5093142;28;20207;-59
2023/03/17 00:52:56;;;;;;;3.60;2.33;;;9.60;1.00;;;;;;5085922;28;20526;-59
2023/03/17 00:55:25;;;;;;;3.40;2.20;;;9.50;1.00;;;;;;5087952;28;20197;-59
2023/03/17 00:57:52;;;;;;;5.17;2.00;;;9.50;1.00;;;;;;5072019;28;20581;-59
2023/03/17 01:00:28;;;;;;;3.57;1.97;;;9.60;1.00;;;;;;5055856;28;20201;-59
2023/03/17 01:02:56;;;;;;;3.17;2.03;;;9.60;1.00;;;;;;5088694;28;20291;-59
2023/03/17 01:05:24;;;;;;;2.50;1.97;;;9.50;1.00;;;;;;5093290;28;20200;-59
2023/03/17 01:07:54;;;;;;;2.53;2.07;;;9.40;1.00;;;;;;5097130;28;20754;-58
2023/03/17 01:10:24;;;;;;;3.83;2.17;;;9.40;1.00;;;;;;5094069;28;20201;-59
2023/03/17 01:12:53;;;;;;;3.20;2.20;;;9.40;1.00;;;;;;5077647;28;20266;-59
2023/03/17 01:15:21;;;;;;;3.20;2.20;;;9.40;1.00;;;;;;5089406;28;20653;-63
2023/03/17 01:17:50;;;;;;;2.23;1.87;;;9.50;1.00;;;;;;5090628;28;20226;-59
2023/03/17 01:20:32;;;;;;;2.67;2.10;;;9.50;1.00;;;;;;5090920;28;20213;-59
2023/03/17 01:23:01;;;;;;;3.20;2.20;;;9.40;1.00;;;;;;5092290;28;20318;-59
2023/03/17 01:25:28;;;;;;;3.73;2.30;;;9.30;1.00;;;;;;5066640;28;20202;-59
2023/03/17 01:27:58;;;;;;;2.57;2.00;;;9.30;1.00;;;;;;5087508;28;20559;-59
2023/03/17 01:30:31;;;;;;;3.47;2.07;;;9.20;1.00;;;;;;5070179;28;20623;-58
2023/03/17 01:32:58;;;;;;;2.63;2.00;;;9.20;1.00;;;;;;5070842;28;20198;-61
2023/03/17 01:35:28;;;;;;;2.97;2.03;;;9.20;1.00;;;;;;5054105;28;20255;-58
2023/03/17 01:37:56;;;;;;;2.80;2.07;;;9.20;1.00;;;;;;5074634;28;20259;-59
2023/03/17 01:40:29;;;;;;;3.07;2.10;;;9.20;1.00;;;;;;5087664;28;20593;-59
2023/03/17 01:43:07;;;;;;;6.00;2.27;;;9.00;1.00;;;;;;5083605;28;20206;-59
2023/03/17 01:46:11;;;;;;;2.13;1.63;;;9.20;1.00;;;;;;5086790;28;20209;-59
2023/03/17 01:49:08;;;;;;;3.83;2.10;;;9.30;1.00;;;;;;5087515;28;20690;-59
2023/03/17 01:51:41;;;;;;;2.70;2.17;;;9.20;1.00;;;;;;5082482;28;20819;-59
2023/03/17 01:54:13;;;;;;;2.53;2.00;;;9.30;1.00;;;;;;5083298;28;20226;-59
2023/03/17 01:56:44;;;;;;;3.50;2.17;;;9.10;1.00;;;;;;5088700;28;20263;-59
2023/03/17 01:59:18;;;;;;;4.17;2.07;;;9.10;1.00;;;;;;5082714;28;20194;-59
2023/03/17 02:01:48;;;;;;;2.33;2.00;;;9.20;1.00;;;;;;5086527;28;20613;-59
2023/03/17 02:04:17;;;;;;;3.73;1.90;;;9.30;1.00;;;;;;5086750;28;20254;-59
2023/03/17 02:06:46;;;;;;;2.97;1.90;;;9.20;1.00;;;;;;5088822;28;20207;-60
2023/03/17 02:09:25;;;;;;;3.57;2.27;;;9.20;1.00;;;;;;5086568;28;20595;-59
2023/03/17 02:11:52;;;;;;;3.93;2.30;;;9.30;1.00;;;;;;5072207;28;20388;-63
2023/03/17 02:14:19;;;;;;;2.50;2.03;;;9.20;1.00;;;;;;5089149;28;20286;-59
2023/03/17 02:16:46;;;;;;;3.20;2.10;;;9.20;1.00;;;;;;5066787;28;20190;-59
2023/03/17 02:19:13;;;;;;;2.43;1.73;;;9.10;1.00;;;;;;5089520;28;20313;-59
2023/03/17 02:21:46;;;;;;;3.57;2.20;;;9.10;1.00;;;;;;5070871;28;20216;-59
2023/03/17 02:24:29;;;;;;;3.93;2.33;;;9.20;1.00;;;;;;5093698;28;20253;-59
2023/03/17 02:27:18;;;;;;;2.70;1.77;;;9.10;1.00;;;;;;5091556;28;20212;-59
2023/03/17 02:29:45;;;;;;;3.67;1.97;;;9.10;1.00;;;;;;5092342;28;20285;-60
2023/03/17 02:32:14;;;;;;;2.97;1.90;;;9.10;1.00;;;;;;5057374;28;20213;-58
2023/03/17 02:34:42;;;;;;;3.97;2.07;;;9.10;1.00;;;;;;5085471;27;20294;-61
2023/03/17 02:37:09;;;;;;;3.03;2.10;;;9.10;1.00;;;;;;5073156;28;20198;-59
2023/03/17 02:39:36;;;;;;;3.03;2.10;;;9.20;1.00;;;;;;5043821;28;20234;-59
2023/03/17 02:42:04;;;;;;;3.33;1.90;;;9.20;1.00;;;;;;5068419;28;20225;-59
2023/03/17 02:44:31;;;;;;;2.07;1.83;;;9.00;1.00;;;;;;5066378;28;20924;-59
2023/03/17 02:46:59;;;;;;;3.40;2.00;;;9.10;1.00;;;;;;5069546;28;20604;-59
2023/03/17 02:49:27;;;;;;;3.03;1.97;;;9.00;1.00;;;;;;5049951;28;20998;-59
2023/03/17 02:51:54;;;;;;;2.70;1.97;;;9.00;1.00;;;;;;5066230;28;20201;-59
2023/03/17 02:54:22;;;;;;;2.50;1.87;;;9.00;1.00;;;;;;5070256;28;20733;-59
2023/03/17 02:56:48;;;;;;;2.87;1.93;;;9.10;1.00;;;;;;5034611;28;20280;-59
2023/03/17 02:59:15;;;;;;;4.37;2.00;;;9.00;1.00;;;;;;5066577;28;20723;-60
2023/03/17 03:01:42;;;;;;;4.43;2.07;;;9.10;1.00;;;;;;5048317;28;20227;-61
2023/03/17 03:04:09;;;;;;;3.67;2.37;;;9.10;1.00;;;;;;5068023;28;20215;-59
2023/03/17 03:06:38;;;;;;;3.87;2.33;;;9.20;1.00;;;;;;5067266;28;20227;-60
2023/03/17 03:09:05;;;;;;;5.03;2.30;;;9.10;1.00;;;;;;5065795;28;20216;-59
2023/03/17 03:11:32;;;;;;;2.50;1.80;;;9.00;1.00;;;;;;5066255;28;20203;-59
2023/03/17 03:13:59;;;;;;;4.20;2.10;;;9.10;1.00;;;;;;5064209;28;20199;-59
2023/03/17 03:16:26;;;;;;;3.73;1.90;;;9.10;1.00;;;;;;5063935;28;20203;-60
2023/03/17 03:18:53;;;;;;;2.03;1.73;;;9.10;1.00;;;;;;5033855;28;20796;-59
2023/03/17 03:21:20;;;;;;;2.90;1.90;;;9.10;1.00;;;;;;5050119;28;20214;-59
2023/03/17 03:23:48;;;;;;;4.87;2.30;;;9.10;1.00;;;;;;5054083;28;20207;-59
2023/03/17 03:26:15;;;;;;;2.27;1.80;;;9.10;1.00;;;;;;5065734;28;20272;-59
2023/03/17 03:28:42;;;;;;;3.07;2.00;;;9.10;1.00;;;;;;5026369;28;20276;-59
2023/03/17 03:31:09;;;;;;;2.47;2.20;;;9.10;1.00;;;;;;5061416;28;20198;-59
2023/03/17 03:33:36;;;;;;;6.00;2.20;;;9.10;1.00;;;;;;5067617;28;20760;-59
2023/03/17 03:36:03;;;;;;;3.77;2.10;;;9.10;1.00;;;;;;5045302;28;20818;-59
2023/03/17 03:38:30;;;;;;;4.27;2.40;;;9.10;1.00;;;;;;5067547;28;20994;-60
2023/03/17 03:40:57;;;;;;;3.30;2.43;;;9.10;1.00;;;;;;5067348;28;20244;-61
2023/03/17 03:43:24;;;;;;;3.50;2.10;;;9.10;1.00;;;;;;5069971;28;20194;-61
2023/03/17 03:45:51;;;;;;;3.83;2.17;;;9.10;1.00;;;;;;5061293;28;20208;-61
2023/03/17 03:48:18;;;;;;;3.17;1.97;;;9.10;1.00;;;;;;5064485;28;20305;-61
2023/03/17 03:50:45;;;;;;;4.73;2.37;;;9.10;1.00;;;;;;5066944;28;21033;-61
2023/03/17 03:53:12;;;;;;;4.23;2.30;;;9.10;1.00;;;;;;5048066;28;22069;-60
2023/03/17 03:55:39;;;;;;;2.37;1.80;;;9.10;1.00;;;;;;5067344;28;20211;-61
2023/03/17 03:58:07;;;;;;;3.17;2.30;;;9.00;1.00;;;;;;5062886;28;20340;-60
2023/03/17 04:00:34;;;;;;;3.73;2.33;;;8.90;1.00;;;;;;5054548;28;20199;-60
2023/03/17 04:03:01;;;;;;;2.30;1.90;;;8.90;1.00;;;;;;5065791;28;20614;-61
2023/03/17 04:05:28;;;;;;;2.70;1.87;;;9.00;1.00;;;;;;5065132;28;21062;-60
2023/03/17 04:07:55;;;;;;;4.93;2.20;;;9.10;1.00;;;;;;5067132;28;20217;-60
2023/03/17 04:10:22;;;;;;;3.00;2.00;;;9.10;1.00;;;;;;5052365;28;20201;-60
2023/03/17 04:12:49;;;;;;;3.87;2.30;;;9.20;1.00;;;;;;5063013;28;20209;-60
2023/03/17 04:15:18;;;;;;;3.87;2.30;;;9.10;1.00;;;;;;5063277;28;20633;-60
2023/03/17 04:17:45;;;;;;;3.27;2.00;;;9.10;1.00;;;;;;5066864;28;20239;-61
2023/03/17 04:20:14;;;;;;;3.57;2.10;;;9.00;1.00;;;;;;5066544;28;20231;-61
2023/03/17 04:22:42;;;;;;;4.00;1.77;;;9.00;1.00;;;;;;5071143;28;20201;-60
2023/03/17 04:25:11;;;;;;;5.07;2.17;;;8.90;1.00;;;;;;5072221;28;20286;-62
2023/03/17 04:27:38;;;;;;;3.13;2.17;;;8.80;1.00;;;;;;5067286;28;20292;-60
2023/03/17 04:30:05;;;;;;;2.10;1.73;;;8.80;1.00;;;;;;5065207;28;20233;-60
2023/03/17 04:32:32;;;;;;;2.87;1.90;;;8.90;1.00;;;;;;5066975;28;20299;-61
2023/03/17 04:34:59;;;;;;;3.23;2.30;;;8.90;1.00;;;;;;5067069;28;20215;-61
2023/03/17 04:37:26;;;;;;;3.93;2.23;;;8.90;1.00;;;;;;5072697;28;20233;-60
2023/03/17 04:39:54;;;;;;;2.90;2.10;;;9.00;1.00;;;;;;5072269;28;20290;-61
2023/03/17 04:42:21;;;;;;;3.47;2.03;;;8.80;1.00;;;;;;5065253;28;20572;-61
2023/03/17 04:44:48;;;;;;;2.63;1.90;;;8.90;1.00;;;;;;5063405;28;22518;-61
2023/03/17 04:47:15;;;;;;;4.67;1.87;;;8.90;1.00;;;;;;5088233;28;20251;-60
2023/03/17 04:49:42;;;;;;;3.03;2.40;;;8.90;1.00;;;;;;5072133;28;20220;-60
2023/03/17 04:52:09;;;;;;;4.23;2.00;;;8.90;1.00;;;;;;5073131;28;20197;-60
2023/03/17 04:54:36;;;;;;;4.77;2.00;;;9.00;1.00;;;;;;5062918;28;20205;-60
2023/03/17 04:57:03;;;;;;;6.43;2.40;;;8.80;1.00;;;;;;5089029;28;20197;-61
2023/03/17 04:59:30;;;;;;;3.53;1.97;;;8.90;1.00;;;;;;5084359;27;20239;-60
2023/03/17 05:01:57;;;;;;;4.30;2.37;;;8.90;1.00;;;;;;5091098;28;20576;-61
2023/03/17 05:04:24;;;;;;;3.13;2.20;;;8.90;1.00;;;;;;5068729;28;20210;-60
2023/03/17 05:06:58;;;;;;;3.30;1.63;;;8.90;1.00;;;;;;5088323;28;20267;-60
2023/03/17 05:09:27;;;;;;;3.63;2.03;;;8.90;1.00;;;;;;5088623;28;20224;-61
2023/03/17 05:11:54;;;;;;;2.27;1.87;;;8.90;1.00;;;;;;5069756;28;20295;-58
2023/03/17 05:14:21;;;;;;;3.60;2.07;;;8.90;1.00;;;;;;5088921;28;20274;-57
2023/03/17 05:16:48;;;;;;;6.17;2.33;;;8.90;1.00;;;;;;5067912;28;20206;-57
2023/03/17 05:19:17;;;;;;;4.73;2.20;;;8.80;1.00;;;;;;5088397;28;20243;-57
2023/03/17 05:21:44;;;;;;;6.47;2.40;;;8.80;1.00;;;;;;5088796;28;20287;-57
2023/03/17 05:24:11;;;;;;;3.63;2.20;;;8.80;1.00;;;;;;5088920;28;20569;-57
2023/03/17 05:26:38;;;;;;;5.50;2.03;;;8.80;1.00;;;;;;5070877;28;20602;-57
2023/03/17 05:29:06;;;;;;;5.93;2.63;;;8.80;1.00;;;;;;5089645;28;20740;-57
2023/03/17 05:31:32;;;;;;;3.70;2.20;;;8.90;1.00;;;;;;5089685;28;22108;-57
2023/03/17 05:34:00;;;;;;;5.17;2.03;;;8.90;1.00;;;;;;5090094;28;20560;-57
2023/03/17 05:36:26;;;;;;;3.37;2.00;;;8.90;1.00;;;;;;5068183;28;20198;-57
2023/03/17 05:38:53;;;;;;;4.77;2.50;;;8.90;1.00;;;;;;5070410;28;20256;-57
2023/03/17 05:41:20;;;;;;;4.73;2.30;;;8.90;1.00;;;;;;5068479;28;20205;-61
2023/03/17 05:43:47;;;;;;;4.70;2.23;;;8.90;1.00;;;;;;5093115;28;20205;-60
2023/03/17 05:46:14;;;;;;;5.07;1.97;;;8.70;1.00;;;;;;5092835;28;20198;-58
2023/03/17 05:48:44;;;;;;;3.20;1.80;;;8.80;1.00;;;;;;5067341;28;20218;-58
2023/03/17 05:51:11;;;;;;;4.90;2.40;;;8.80;1.00;;;;;;5050099;28;20501;-58
2023/03/17 05:53:37;;;;;;;3.80;1.90;;;8.70;1.00;;;;;;5090899;28;20292;-58
2023/03/17 05:56:05;;;;;;;2.50;2.27;;;8.70;1.00;;;;;;5074582;28;20302;-57
2023/03/17 05:58:32;;;;;;;4.30;2.13;;;8.80;1.00;;;;;;5092348;27;20735;-58
2023/03/17 06:00:59;;;;;;;3.10;2.00;;;8.70;1.00;;;;;;5092319;28;20302;-57
2023/03/17 06:03:26;;;;;;;4.90;2.33;;;8.70;1.00;;;;;;5094634;27;20860;-57
2023/03/17 06:05:53;;;;;;;4.27;1.80;;;8.70;1.00;;;;;;5092334;28;20703;-57
2023/03/17 06:08:20;;;;;;;6.90;2.00;;;8.80;1.00;;;;;;5073870;28;20233;-57
2023/03/17 06:10:47;;;;;;;4.50;2.10;;;8.80;1.00;;;;;;5095404;28;20422;-57
2023/03/17 06:13:14;;;;;;;5.20;2.20;;;8.80;1.00;;;;;;5084313;28;20192;-58
2023/03/17 06:15:41;;;;;;;2.23;1.80;;;8.80;1.00;;;;;;5092448;27;20305;-58
2023/03/17 06:18:08;;;;;;;10.50;2.60;;;8.80;1.00;;;;;;5093050;28;20747;-58
2023/03/17 06:20:36;;;;;;;3.50;1.80;;;8.80;1.00;;;;;;5095312;27;20586;-58
2023/03/17 06:23:03;;;;;;;6.90;2.27;;;8.80;1.00;;;;;;5070684;28;20228;-60
2023/03/17 06:25:33;;;;;;;5.53;2.57;;;8.80;1.00;;;;;;5050077;28;20230;-60
2023/03/17 06:28:02;;;;;;;2.90;2.30;;;8.80;1.00;;;;;;5080447;28;21734;-61
2023/03/17 06:30:31;;;;;;;4.27;2.13;;;8.90;1.00;;;;;;5084413;28;20611;-61
2023/03/17 06:32:59;;;;;;;4.10;2.30;;;8.90;1.00;;;;;;5088259;28;20205;-61
2023/03/17 06:35:26;;;;;;;4.50;2.37;;;8.90;1.00;;;;;;5096266;28;20201;-61
2023/03/17 06:37:53;;;;;;;4.83;2.03;;;8.90;1.00;;;;;;5094234;28;20199;-61
2023/03/17 06:40:20;;;;;;;7.00;2.33;;;8.90;1.00;;;;;;5074360;28;20235;-61
2023/03/17 06:42:47;;;;;;;4.37;2.70;;;8.90;1.00;;;;;;5062530;28;20542;-61
2023/03/17 06:45:14;;;;;;;5.63;2.60;;;9.00;1.00;;;;;;5070617;28;20201;-61
2023/03/17 06:47:41;;;;;;;4.57;2.40;;;9.00;1.00;;;;;;5070723;28;20290;-61
2023/03/17 06:50:10;;;;;;;3.53;1.83;;;9.20;1.00;;;;;;5074695;28;20213;-61
2023/03/17 06:52:38;;;;;;;3.93;2.30;;;9.20;1.00;;;;;;5061974;28;20228;-61
2023/03/17 06:55:06;;;;;;;5.10;2.50;;;9.20;1.00;;;;;;5069117;28;20320;-61
2023/03/17 06:57:33;;;;;;;5.30;2.20;;;9.30;1.00;;;;;;5060520;28;20219;-61
2023/03/17 07:00:00;;;;;;;4.37;2.33;;;9.30;1.00;;;;;;5060081;28;20767;-61
2023/03/17 07:02:27;;;;;;;3.57;2.37;;;9.30;1.00;;;;;;5065411;28;20207;-61
2023/03/17 07:04:56;;;;;;;3.83;2.30;;;9.40;1.00;;;;;;5058369;28;20195;-61
2023/03/17 07:07:24;;;;;;;4.77;2.00;;;9.40;1.00;;;;;;5072262;28;20206;-61
2023/03/17 07:09:51;;;;;;;3.70;2.40;;;9.50;1.00;;;;;;5050786;28;20211;-61
2023/03/17 07:12:18;;;;;;;3.83;2.30;;;9.50;1.00;;;;;;5066033;28;20317;-61
2023/03/17 07:14:45;;;;;;;3.10;2.00;;;9.60;1.00;;;;;;5045563;28;20626;-61
2023/03/17 07:17:13;;;;;;;4.10;3.00;;;9.50;1.00;;;;;;5051696;28;20863;-61
2023/03/17 07:19:41;;;;;;;4.50;2.10;;;9.60;1.00;;;;;;5066715;28;20262;-61
2023/03/17 07:22:10;;;;;;;4.53;2.17;;;9.60;1.00;;;;;;5064683;28;20242;-61
2023/03/17 07:24:38;;;;;;;4.17;2.47;;;9.70;1.00;;;;;;4707899;28;9999689;-61
2023/03/17 07:27:05;;;;;;;5.10;2.43;;;9.70;1.00;;;;;;5047407;28;20217;-61
2023/03/17 07:29:33;;;;;;;6.00;2.10;;;9.70;1.00;;;;;;5053897;28;20697;-61
2023/03/17 07:32:00;;;;;;;4.80;2.20;;;9.80;1.00;;;;;;5063565;28;20300;-61
2023/03/17 07:34:28;;;;;;;5.70;2.10;;;9.90;1.00;;;;;;5050070;28;20200;-61
2023/03/17 07:36:55;;;;;;;4.50;2.30;;;9.90;1.00;;;;;;5068478;28;20272;-61
2023/03/17 07:39:21;;;;;;;5.47;2.40;;;9.90;1.00;;;;;;5077838;28;20264;-60
2023/03/17 07:41:53;;;;;;;5.33;2.60;;;10.00;1.00;;;;;;5084020;28;20206;-61
2023/03/17 07:44:21;;;;;;;5.83;2.63;;;10.10;1.00;;;;;;5070002;28;20210;-60
2023/03/17 07:46:49;;;;;;;3.73;2.30;;;10.10;1.00;;;;;;5069135;28;20294;-60
2023/03/17 07:49:16;;;;;;;4.80;2.37;;;10.00;1.00;;;;;;5082616;27;20858;-61
2023/03/17 07:51:53;;;;;;;4.77;2.30;;;10.10;1.00;;;;;;5087203;28;20208;-60
2023/03/17 07:54:20;;;;;;;5.17;2.10;;;10.20;1.00;;;;;;5094254;28;20198;-60
2023/03/17 07:56:47;;;;;;;3.07;2.23;;;10.30;1.00;;;;;;5075141;28;20252;-60
2023/03/17 07:59:14;;;;;;;4.90;2.60;;;10.20;1.00;;;;;;5077931;28;20203;-60
2023/03/17 08:01:41;;;;;;;3.87;2.60;;;10.20;1.00;;;;;;5084353;28;20246;-61
2023/03/17 08:04:09;;;;;;;4.07;2.13;;;10.30;1.00;;;;;;5071211;28;20248;-60
2023/03/17 08:06:37;;;;;;;4.40;2.03;;;10.50;1.00;;;;;;5070448;28;20835;-60
2023/03/17 08:09:11;;;;;;;5.90;2.23;;;10.60;1.00;;;;;;5068320;28;20576;-64
2023/03/17 08:12:02;;;;;;;6.73;2.13;;;10.50;1.00;;;;;;5078651;28;20202;-65
2023/03/17 08:14:31;;;;;;;2.77;1.93;;;10.70;1.00;;;;;;5075511;28;20209;-64
2023/03/17 08:16:59;;;;;;;8.07;2.40;;;10.90;1.00;;;;;;5087628;28;20229;-64
2023/03/17 08:19:34;;;;;;;8.13;2.47;;;11.00;1.00;;;;;;5086086;28;20216;-64
2023/03/17 08:22:46;;;;;;;2.80;2.00;;;11.10;1.00;;;;;;5088019;27;20207;-64
2023/03/17 08:25:16;;;;;;;9.57;1.97;;;11.30;1.00;;;;;;5089727;28;20206;-62
2023/03/17 08:27:43;;;;;;;3.47;1.70;;;11.40;1.00;;;;;;5090187;28;20466;-60
2023/03/17 08:30:11;;;;;;;4.40;1.97;;;11.30;1.00;;;;;;5083431;28;20242;-60
2023/03/17 08:32:38;;;;;;;2.37;1.73;;;11.40;1.00;;;;;;5075220;28;20746;-60
2023/03/17 08:35:05;;;;;;;6.20;2.10;;;11.60;1.00;;;;;;5093312;28;20203;-60
2023/03/17 08:37:32;;;;;;;7.73;2.57;;;11.60;1.00;;;;;;5091215;28;20198;-60
2023/03/17 08:40:00;;;;;;;4.07;2.03;;;11.70;1.00;;;;;;5065968;28;20255;-60
2023/03/17 08:42:27;;;;;;;4.57;2.30;;;11.60;1.00;;;;;;5093381;28;20280;-61
2023/03/17 08:44:54;;;;;;;6.73;2.40;;;11.50;1.00;;;;;;5092896;28;20199;-60
2023/03/17 08:47:20;;;;;;;3.97;1.80;;;11.90;1.00;;;;;;5095671;28;20252;-61
2023/03/17 08:49:48;;;;;;;2.80;1.93;;;11.90;1.00;;;;;;5086065;28;20258;-60
2023/03/17 08:52:15;;;;;;;5.00;2.03;;;11.90;1.00;;;;;;5096173;28;20203;-60
2023/03/17 08:54:42;;;;;;;4.17;2.00;;;12.10;1.00;;;;;;5074706;28;20249;-61
2023/03/17 08:57:09;;;;;;;5.80;2.30;;;12.20;1.00;;;;;;5093763;28;20255;-60
2023/03/17 08:59:36;;;;;;;4.87;2.20;;;12.10;1.00;;;;;;5090462;28;20662;-60
2023/03/17 09:02:03;;;;;;;4.73;1.60;;;12.40;1.00;;;;;;5072386;28;20659;-60
2023/03/17 09:04:31;;;;;;;3.70;2.00;;;12.40;1.00;;;;;;5089405;28;20221;-60
2023/03/17 09:06:58;;;;;;;4.97;2.10;;;12.50;1.00;;;;;;5073214;28;20292;-61
2023/03/17 09:09:31;;;;;;;4.40;2.10;;;12.80;1.00;;;;;;5095455;28;20300;-61
2023/03/17 09:11:58;;;;;;;4.27;2.30;;;13.10;1.00;;;;;;5090878;28;20647;-61
2023/03/17 09:14:26;;;;;;;4.03;1.90;;;12.90;1.00;;;;;;5090272;28;21794;-60
2023/03/17 09:16:54;;;;;;;4.27;2.17;;;12.70;1.00;;;;;;5058996;28;20208;-60
2023/03/17 09:19:21;;;;;;;2.07;1.73;;;12.60;1.00;;;;;;5089298;28;20577;-61
2023/03/17 09:21:48;;;;;;;5.43;2.93;;;12.70;1.00;;;;;;5072884;28;20309;-61
2023/03/17 09:24:15;;;;;;;4.63;2.20;;;12.60;1.00;;;;;;5089392;28;20211;-62
2023/03/17 09:26:42;;;;;;;6.13;2.17;;;12.70;1.00;;;;;;5088637;28;20720;-60
2023/03/17 09:29:09;;;;;;;2.93;2.20;;;12.60;1.00;;;;;;5069687;28;21435;-60
2023/03/17 09:31:36;;;;;;;3.43;1.97;;;12.60;1.00;;;;;;5093364;28;20228;-60
2023/03/17 09:34:04;;;;;;;4.77;1.93;;;12.70;1.00;;;;;;5088779;28;20262;-60
2023/03/17 09:36:32;;;;;;;4.97;2.47;;;12.90;1.00;;;;;;5051947;28;20841;-61
2023/03/17 09:38:59;;;;;;;5.50;2.27;;;13.00;1.00;;;;;;5092713;28;20231;-61
2023/03/17 09:41:36;;;;;;;3.60;2.17;;;12.90;1.00;;;;;;5070633;28;20223;-60
2023/03/17 09:44:12;;;;;;;3.80;2.43;;;13.10;1.00;;;;;;5089002;28;20199;-60
2023/03/17 09:46:46;;;;;;;5.97;2.30;;;13.20;1.00;;;;;;5089362;28;20302;-60
2023/03/17 09:49:19;;;;;;;2.63;1.87;;;13.10;1.00;;;;;;5091254;28;20216;-60
2023/03/17 09:51:48;;;;;;;3.23;2.10;;;13.30;1.00;;;;;;5086880;28;20289;-60
2023/03/17 09:54:30;;;;;;;4.57;2.73;;;13.50;1.00;;;;;;5085193;28;20194;-60
2023/03/17 09:57:13;;;;;;;4.50;2.63;;;13.70;1.00;;;;;;5089061;28;20252;-61
2023/03/17 09:59:43;;;;;;;3.93;2.60;;;14.00;1.00;;;;;;5090486;28;20263;-60
2023/03/17 10:02:27;;;;;;;3.60;2.13;;;14.20;1.00;;;;;;5093250;28;20727;-60
2023/03/17 10:04:55;;;;;;;6.10;2.40;;;14.30;1.00;;;;;;5090141;28;20625;-60
2023/03/17 10:07:52;;;;;;;3.03;2.10;;;14.20;1.00;;;;;;5087997;28;20216;-60
2023/03/17 10:10:33;;;;;;;7.03;1.83;;;14.20;1.00;;;;;;5050139;28;21171;-61
2023/03/17 10:13:31;;;;;;;4.93;2.80;;;14.30;1.00;;;;;;5089379;28;20197;-60
2023/03/17 10:16:06;;;;;;;3.30;2.10;;;14.50;1.00;;;;;;5084851;28;20365;-61
2023/03/17 10:18:43;;;;;;;3.17;2.27;;;14.40;1.00;;;;;;5093269;28;20231;-60
2023/03/17 10:21:16;;;;;;;2.33;1.90;;;14.50;1.00;;;;;;5092340;28;20622;-60
2023/03/17 10:23:45;;;;;;;3.03;2.20;;;14.70;1.00;;;;;;5077534;28;20564;-60
2023/03/17 10:26:43;;;;;;;7.43;2.30;;;15.00;1.00;;;;;;5087503;28;20209;-60
2023/03/17 10:29:22;;;;;;;3.73;2.43;;;15.10;1.00;;;;;;5075976;28;21219;-61
2023/03/17 10:31:51;;;;;;;4.57;2.43;;;15.30;1.00;;;;;;5073382;28;20203;-61
2023/03/17 10:34:26;;;;;;;3.13;2.07;;;15.30;1.00;;;;;;5096032;28;20267;-61
2023/03/17 10:37:07;;;;;;;3.40;2.20;;;15.10;1.00;;;;;;5094616;28;20771;-61
2023/03/17 10:39:46;;;;;;;3.10;2.13;;;15.00;1.00;;;;;;5088029;28;20680;-61
2023/03/17 10:42:24;;;;;;;5.00;2.97;;;15.00;1.00;;;;;;5067900;28;20226;-61
2023/03/17 10:45:12;;;;;;;3.13;2.33;;;14.80;1.00;;;;;;5071129;28;20268;-61
2023/03/17 10:47:46;;;;;;;6.43;2.70;;;14.90;1.00;;;;;;5072748;28;20211;-61
2023/03/17 10:50:24;;;;;;;6.00;2.80;;;14.80;1.00;;;;;;5070525;28;20222;-61
2023/03/17 10:53:30;;;;;;;3.73;2.20;;;14.70;1.00;;;;;;5066152;28;20197;-61
2023/03/17 10:56:14;;;;;;;5.07;2.70;;;14.70;1.00;;;;;;5039579;28;20262;-61
2023/03/17 10:58:47;;;;;;;2.80;2.27;;;14.90;1.00;;;;;;5073922;28;20681;-61
2023/03/17 11:01:20;;;;;;;3.47;2.67;;;14.80;1.00;;;;;;5071927;28;20297;-61
2023/03/17 11:03:48;;;;;;;4.73;2.50;;;14.70;1.00;;;;;;5074853;28;20211;-61
2023/03/17 11:06:18;;;;;;;3.87;2.67;;;15.00;1.00;;;;;;5054684;28;20228;-62
2023/03/17 11:08:52;;;;;;;5.77;2.70;;;15.10;1.00;;;;;;5070342;28;20212;-61
2023/03/17 11:11:26;;;;;;;4.33;3.13;;;15.20;1.00;;;;;;5069710;28;20279;-62
2023/03/17 11:14:03;;;;;;;4.10;2.60;;;15.20;1.00;;;;;;5071345;28;20311;-61
2023/03/17 11:16:33;;;;;;;5.00;2.47;;;15.60;1.00;;;;;;5051399;28;20201;-61
2023/03/17 11:19:02;;;;;;;2.80;2.40;;;16.00;1.00;;;;;;5067717;28;20217;-61
2023/03/17 11:21:49;;;;;;;4.83;2.53;;;15.80;1.00;;;;;;5072473;28;20208;-61
2023/03/17 11:24:29;;;;;;;3.63;2.13;;;16.20;1.00;;;;;;5050026;28;20211;-61
2023/03/17 11:27:19;;;;;;;6.43;2.87;;;16.50;1.00;;;;;;5069541;28;20678;-62
2023/03/17 11:30:19;;;;;;;6.67;2.77;;;16.30;1.00;;;;;;5074289;28;20309;-61
2023/03/17 11:32:58;;;;;;;5.47;2.40;;;16.50;1.00;;;;;;5075641;28;20208;-61
2023/03/17 11:35:43;;;;;;;5.50;2.30;;;16.70;1.00;;;;;;5074503;28;20660;-61
2023/03/17 11:38:23;;;;;;;4.73;2.90;;;17.00;1.00;;;;;;5076349;28;20273;-61
2023/03/17 11:41:09;;;;;;;4.97;2.53;;;17.20;1.00;;;;;;5083900;28;20732;-61
2023/03/17 11:44:04;;;;;;;3.90;2.77;;;17.30;1.00;;;;;;5076137;28;20239;-61
2023/03/17 11:46:40;;;;;;;3.50;2.47;;;16.90;1.00;;;;;;5094380;28;20247;-61
2023/03/17 11:49:15;;;;;;;3.20;2.37;;;16.80;1.00;;;;;;5094453;28;20557;-61
2023/03/17 11:51:55;;;;;;;3.40;2.47;;;16.90;1.00;;;;;;5093363;28;20200;-61
2023/03/17 11:54:28;;;;;;;5.33;2.53;;;17.20;1.00;;;;;;5094658;28;20299;-61
2023/03/17 11:56:58;;;;;;;6.07;2.27;;;17.40;1.00;;;;;;5090926;28;20240;-61
2023/03/17 11:59:51;;;;;;;4.00;2.60;;;17.20;1.00;;;;;;5091657;28;20205;-61
2023/03/17 12:02:39;;;;;;;4.23;2.20;;;17.10;1.00;;;;;;5093623;28;20233;-61
2023/03/17 12:05:22;;;;;;;4.70;2.57;;;17.50;1.00;;;;;;5094094;28;20238;-61
2023/03/17 12:07:55;;;;;;;4.57;2.50;;;17.50;1.00;;;;;;5069660;28;20299;-61
2023/03/17 12:10:44;;;;;;;4.80;2.67;;;17.30;1.00;;;;;;5085115;28;20539;-61
2023/03/17 12:13:22;;;;;;;4.73;2.77;;;17.50;1.00;;;;;;5092591;28;20203;-61
2023/03/17 12:15:51;;;;;;;5.30;2.43;;;17.90;1.00;;;;;;5090665;28;20642;-61
2023/03/17 12:18:26;;;;;;;3.63;2.47;;;17.90;1.00;;;;;;5092945;28;21077;-61
2023/03/17 12:21:03;;;;;;;3.53;2.47;;;18.00;1.00;;;;;;5091753;28;20205;-61
2023/03/17 12:23:51;;;;;;;5.53;2.53;;;17.80;1.00;;;;;;5091062;28;20323;-61
2023/03/17 12:26:57;;;;;;;2.90;2.30;;;18.00;1.00;;;;;;5088646;28;20209;-61
2023/03/17 12:29:42;;;;;;;5.37;2.37;;;18.20;1.00;;;;;;5094345;28;20293;-61
2023/03/17 12:32:39;;;;;;;3.53;2.60;;;18.00;1.00;;;;;;5077867;28;20271;-61
2023/03/17 12:35:33;;;;;;;5.10;2.67;;;18.10;1.00;;;;;;5075195;28;20802;-61
2023/03/17 12:38:10;;;;;;;4.27;2.53;;;17.70;1.00;;;;;;5093531;28;20199;-62
2023/03/17 12:41:09;;;;;;;5.33;3.77;;;17.60;1.00;;;;;;5090576;28;20247;-60
2023/03/17 12:44:14;;;;;;;4.80;2.50;;;17.60;1.00;;;;;;5088570;28;20290;-61
2023/03/17 12:46:53;;;;;;;5.00;2.57;;;17.90;1.00;;;;;;5090260;28;20216;-63
2023/03/17 12:49:29;;;;;;;4.27;2.23;;;18.10;1.00;;;;;;5090472;28;20275;-61
2023/03/17 12:52:12;;;;;;;6.63;2.80;;;18.60;1.00;;;;;;5090087;28;20221;-61
2023/03/17 12:54:45;;;;;;;4.83;2.40;;;18.30;1.00;;;;;;5090467;28;20364;-61
2023/03/17 12:57:16;;;;;;;4.30;2.30;;;18.00;1.00;;;;;;5089880;28;20294;-61
2023/03/17 12:59:45;;;;;;;5.13;2.83;;;17.90;1.00;;;;;;5090035;28;20960;-61
2023/03/17 13:02:37;;;;;;;3.57;2.60;;;17.90;1.00;;;;;;5091009;28;20203;-66
2023/03/17 13:05:08;;;;;;;6.07;2.13;;;17.80;1.00;;;;;;5086083;28;20303;-62
2023/03/17 13:07:51;;;;;;;5.17;2.37;;;18.10;1.00;;;;;;5087710;28;20550;-61
2023/03/17 13:10:40;;;;;;;3.07;2.47;;;18.40;1.00;;;;;;5092044;28;21081;-61
2023/03/17 13:13:29;;;;;;;4.30;2.20;;;18.30;1.00;;;;;;5072499;28;20199;-61
2023/03/17 13:15:58;;;;;;;3.90;2.50;;;18.40;1.00;;;;;;5081951;28;20194;-61
2023/03/17 13:18:34;;;;;;;4.97;2.70;;;18.50;1.00;;;;;;5072354;28;20640;-61
2023/03/17 13:21:01;;;;;;;3.00;2.10;;;18.00;1.00;;;;;;5088878;28;20820;-61
2023/03/17 13:23:52;;;;;;;5.60;2.60;;;18.10;1.00;;;;;;5093825;28;21055;-61
2023/03/17 13:26:40;;;;;;;6.53;2.40;;;18.10;1.00;;;;;;5072353;28;20580;-61